Search for airport 
image banner adimage banner adimage banner ad
image banner ad

04PA - S&C Distribution Center

Located in Philadelphia, United States

ICAO - 04PA, IATA -

Data provided by Airmate  

General information

Coordinates: N39°52'45" W75°13'44"
Elevation is 50 feet MSL.
Magnetic variation is -11° East
View others Airports in Pennsylvania

Operational data

Special qualification required
Current time UTC:
Current local time:
Weather at : KPHL - Philadelphia Intl ( 1 km )
METAR: KPHL 150554Z 35006KT 10SM -RA SCT070 SCT100 BKN120 BKN150 20/18 A2979 RMK AO2 LTG DSNT E AND SE RAE26B43 SLP089 P0003 60080 T02000178 10267 20194 50006 $
TAF: KPHL 150523Z 1506/1612 19006KT P6SM -RA SCT012 OVC050 TEMPO 1506/1508 2SM TSRA BR OVC015CB FM150800 28006KT P6SM BKN035 TEMPO 1508/1512 2SM BR OVC015 FM151400 30010G18KT P6SM BKN050 FM152300 32008KT P6SM SCT050
View NOTAMs / SUP AIP / TFR affecting this airport [VIEW]
Communications frequencies: [VIEW]

Runways:

Airport contact information

Address: Philadelphia United States

Satellite view of 04PA